Terminal Aerodrome Forecast
Issued by NWS Melbourne, FL

Home | Current Version | Previous Version | Text Only | Print | Product List | Glossary On
Versions: 1 2 3 4 5 6 7 8 9 10 11 12 13 14 15
361
FTUS42 KMLB 131510 AAA
TAFVRB
TAF AMD
KVRB 131510Z 1315/1412 34011KT P6SM SKC
     FM131600 33013G20KT P6SM SKC
     FM140000 01010KT P6SM SKC=

USA.gov is the U.S. government's official web portal to all federal, state and local government web resources and services.